createdAt,value
2022-08-19T00:00:30.068Z,84.53
2022-08-19T00:01:30.606Z,84.63
2022-08-19T00:02:30.038Z,84.67
2022-08-19T00:03:30.043Z,85.24
2022-08-19T00:04:30.174Z,84.63
2022-08-19T00:05:30.024Z,84.67
2022-08-19T00:06:30.012Z,85.03
2022-08-19T00:07:30.005Z,84.94
2022-08-19T00:08:29.996Z,85.58
2022-08-19T00:09:29.976Z,85.58
2022-08-19T00:10:29.994Z,85.58
2022-08-19T00:11:29.979Z,86.72
2022-08-19T00:12:29.974Z,86.32
2022-08-19T00:13:29.950Z,86.32
2022-08-19T00:14:29.948Z,86.43
2022-08-19T00:15:29.965Z,86.32
2022-08-19T00:16:29.934Z,86.52
2022-08-19T00:17:29.942Z,86.52
2022-08-19T00:18:29.918Z,86.43
2022-08-19T00:19:29.919Z,86.77
2022-08-19T00:20:29.902Z,86.72
2022-08-19T00:21:29.923Z,87.07
2022-08-19T00:22:29.887Z,86.72
2022-08-19T00:23:29.893Z,86.97
2022-08-19T00:24:29.886Z,86.97
2022-08-19T00:25:30.734Z,86.77
2022-08-19T00:26:29.868Z,87.17
2022-08-19T00:27:29.878Z,87.37
2022-08-19T00:28:29.849Z,87.57
2022-08-19T00:29:29.839Z,87.27
2022-08-19T00:30:29.836Z,86.43
2022-08-19T00:31:29.845Z,86.63
2022-08-19T00:32:29.831Z,86.66
2022-08-19T00:33:29.823Z,86.43
2022-08-19T00:34:29.821Z,86.43
2022-08-19T00:35:29.809Z,86.83
2022-08-19T00:36:29.783Z,86.43
2022-08-19T00:37:29.784Z,86.52
2022-08-19T00:38:37.398Z,86.32
2022-08-19T00:39:30.814Z,86.83
2022-08-19T00:40:29.754Z,86.77
2022-08-19T00:41:29.756Z,86.93
2022-08-19T00:42:29.760Z,86.72
2022-08-19T00:43:29.740Z,87.27
2022-08-19T00:44:29.731Z,87.17
2022-08-19T00:45:29.722Z,87.27
2022-08-19T00:46:29.717Z,87.37
2022-08-19T00:47:29.710Z,87.47
2022-08-19T00:48:29.719Z,87.77
2022-08-19T00:49:29.712Z,87.57
2022-08-19T00:50:29.694Z,87.67
2022-08-19T00:51:29.673Z,87.57
2022-08-19T00:52:29.686Z,88.07
2022-08-19T00:53:29.661Z,88.78
2022-08-19T00:54:29.903Z,88.88
2022-08-19T00:55:29.642Z,88.68
2022-08-19T00:56:29.636Z,88.48
2022-08-19T00:57:29.627Z,88.48
2022-08-19T00:58:29.649Z,88.48
2022-08-19T01:00:00.516Z,88.68
2022-08-19T01:00:30.599Z,88.58
2022-08-19T01:01:29.652Z,88.88
2022-08-19T01:02:29.588Z,88.38
2022-08-19T01:03:29.578Z,88.32
2022-08-19T01:04:30.591Z,88.12
2022-08-19T01:05:29.565Z,88.22
2022-08-19T01:06:29.552Z,88.88
2022-08-19T01:07:37.607Z,87.67
2022-08-19T01:08:30.570Z,88.07
2022-08-19T01:09:29.541Z,87.67
2022-08-19T01:10:33.537Z,86.93
2022-08-19T01:11:30.527Z,86.63
2022-08-19T01:12:29.512Z,86.63
2022-08-19T01:13:29.504Z,86.43
2022-08-19T01:14:30.532Z,86.52
2022-08-19T01:15:29.496Z,86.52
2022-08-19T01:16:29.505Z,86.68
2022-08-19T01:17:29.482Z,86.79
2022-08-19T01:18:29.485Z,86.32
2022-08-19T01:19:29.466Z,86.72
2022-08-19T01:20:29.454Z,86.68
2022-08-19T01:21:29.466Z,86.83
2022-08-19T01:22:33.524Z,86.52
2022-08-19T01:23:29.436Z,86.72
2022-08-19T01:24:29.433Z,86.63
2022-08-19T01:25:29.421Z,86.43
2022-08-19T01:26:29.417Z,87.23
2022-08-19T01:27:29.504Z,87.33
2022-08-19T01:28:39.640Z,87.87
2022-08-19T01:29:29.403Z,88.07
2022-08-19T01:30:29.392Z,88.88
2022-08-19T01:31:29.394Z,88.18
2022-08-19T01:32:33.237Z,88.48
2022-08-19T01:33:29.371Z,88.58
2022-08-19T01:34:29.377Z,88.68
2022-08-19T01:35:29.351Z,88.88
2022-08-19T01:36:29.348Z,89.69
2022-08-19T01:37:29.351Z,89.23
2022-08-19T01:38:29.336Z,89.23
2022-08-19T01:39:29.421Z,89.32
2022-08-19T01:40:29.327Z,88.78
2022-08-19T01:41:29.302Z,88.68
2022-08-19T01:42:30.587Z,88.07
2022-08-19T01:43:29.300Z,88.78
2022-08-19T01:44:29.291Z,88.58
2022-08-19T01:45:29.304Z,88.58
2022-08-19T01:46:29.273Z,88.38
2022-08-19T01:47:29.266Z,88.43
2022-08-19T01:48:29.258Z,88.03
2022-08-19T01:49:29.264Z,87.63
2022-08-19T01:50:29.264Z,87.23
2022-08-19T01:51:29.237Z,87.02
2022-08-19T01:52:30.233Z,86.83
2022-08-19T01:53:30.614Z,86.88
2022-08-19T01:54:29.215Z,86.93
2022-08-19T01:55:29.215Z,86.79
2022-08-19T01:56:29.217Z,86.52
2022-08-19T01:57:29.189Z,86.63
2022-08-19T01:58:29.197Z,86.93
2022-08-19T01:59:29.177Z,87.02
2022-08-19T02:00:29.195Z,86.72
2022-08-19T02:01:29.180Z,86.83
2022-08-19T02:02:29.158Z,87.02
2022-08-19T02:03:29.143Z,86.52
2022-08-19T02:04:29.142Z,87.17
2022-08-19T02:05:29.135Z,87.33
2022-08-19T02:06:29.142Z,86.72
2022-08-19T02:07:29.119Z,87.02
2022-08-19T02:08:29.128Z,87.37
2022-08-19T02:09:29.145Z,87.43
2022-08-19T02:10:29.095Z,86.63
2022-08-19T02:11:29.093Z,87.02
2022-08-19T02:12:29.074Z,87.02
2022-08-19T02:13:29.071Z,87.53
2022-08-19T02:14:29.058Z,87.63
2022-08-19T02:15:29.072Z,87.53
2022-08-19T02:16:29.045Z,87.83
2022-08-19T02:17:29.047Z,87.53
2022-08-19T02:18:29.045Z,86.72
2022-08-19T02:19:29.026Z,86.72
2022-08-19T02:20:29.011Z,87.08
2022-08-19T02:21:29.007Z,86.72
2022-08-19T02:22:28.998Z,87.33
2022-08-19T02:23:29.011Z,87.29
2022-08-19T02:24:28.982Z,87.33
2022-08-19T02:25:28.992Z,88.03
2022-08-19T02:26:28.986Z,87.73
2022-08-19T02:27:28.963Z,87.63
2022-08-19T02:28:28.958Z,87.49
2022-08-19T02:29:28.956Z,88.48
2022-08-19T02:30:28.965Z,88.74
2022-08-19T02:31:28.931Z,88.78
2022-08-19T02:32:28.925Z,88.78
2022-08-19T02:33:28.926Z,88.58
2022-08-19T02:34:28.910Z,88.64
2022-08-19T02:35:28.914Z,88.78
2022-08-19T02:36:28.915Z,88.23
2022-08-19T02:37:28.897Z,88.03
2022-08-19T02:38:28.891Z,88.43
2022-08-19T02:39:28.875Z,88.28
2022-08-19T02:40:28.863Z,88.68
2022-08-19T02:41:28.886Z,88.98
2022-08-19T02:42:28.858Z,88.58
2022-08-19T02:43:28.843Z,88.38
2022-08-19T02:44:31.559Z,88.34
2022-08-19T02:45:28.832Z,88.03
2022-08-19T02:46:28.821Z,87.93
2022-08-19T02:47:28.838Z,87.53
2022-08-19T02:48:28.814Z,87.08
2022-08-19T02:49:28.826Z,87.43
2022-08-19T02:50:28.797Z,87.49
2022-08-19T02:51:28.801Z,86.79
2022-08-19T02:52:28.785Z,87.13
2022-08-19T02:53:28.773Z,86.68
2022-08-19T02:54:28.785Z,86.99
2022-08-19T02:55:28.756Z,86.68
2022-08-19T02:56:28.772Z,86.48
2022-08-19T02:57:28.744Z,86.68
2022-08-19T02:58:28.760Z,87.19
2022-08-19T02:59:28.724Z,87.33
2022-08-19T03:00:28.713Z,87.73
2022-08-19T03:01:28.754Z,87.43
2022-08-19T03:02:28.727Z,88.54
2022-08-19T03:03:28.698Z,88.34
2022-08-19T03:04:28.695Z,88.43
2022-08-19T03:05:46.907Z,88.84
2022-08-19T03:06:29.671Z,88.84
2022-08-19T03:07:28.675Z,89.34
2022-08-19T03:08:28.667Z,88.43
2022-08-19T03:09:28.647Z,88.43
2022-08-19T03:10:28.631Z,88.94
2022-08-19T03:11:28.638Z,89.24
2022-08-19T03:12:28.628Z,89.34
2022-08-19T03:13:28.633Z,89.24
2022-08-19T03:14:28.634Z,89.34
2022-08-19T03:15:28.596Z,89.34
2022-08-19T03:16:28.596Z,88.74
2022-08-19T03:17:28.606Z,88.54
2022-08-19T03:18:28.571Z,88.09
2022-08-19T03:19:28.572Z,87.99
2022-08-19T03:20:28.560Z,88.23
2022-08-19T03:21:28.553Z,87.99
2022-08-19T03:22:28.545Z,88.19
2022-08-19T03:23:28.561Z,88.29
2022-08-19T03:24:28.539Z,87.89
2022-08-19T03:25:28.526Z,87.99
2022-08-19T03:26:28.514Z,87.79
2022-08-19T03:27:34.444Z,88.49
2022-08-19T03:28:29.527Z,88.39
2022-08-19T03:29:28.505Z,88.59
2022-08-19T03:30:28.488Z,88.29
2022-08-19T03:31:44.795Z,88.29
2022-08-19T03:32:33.044Z,88.19
2022-08-19T03:33:28.718Z,88.39
2022-08-19T03:34:28.473Z,88.79
2022-08-19T03:35:28.456Z,88.49
2022-08-19T03:36:28.555Z,89.10
2022-08-19T03:37:28.440Z,88.79
2022-08-19T03:38:28.431Z,88.90
2022-08-19T03:39:28.440Z,87.29
2022-08-19T03:40:28.408Z,87.49
2022-08-19T03:41:43.312Z,87.95
2022-08-19T03:42:38.690Z,87.65
2022-08-19T03:43:29.392Z,87.04
2022-08-19T03:44:28.382Z,87.75
2022-08-19T03:45:28.379Z,87.08
2022-08-19T03:46:28.373Z,87.35
2022-08-19T03:47:28.360Z,87.45
2022-08-19T03:48:28.373Z,86.94
2022-08-19T03:49:29.098Z,87.24
2022-08-19T03:50:28.338Z,87.35
2022-08-19T03:51:30.880Z,87.35
2022-08-19T03:52:28.347Z,86.94
2022-08-19T03:53:28.309Z,87.04
2022-08-19T03:54:28.318Z,86.74
2022-08-19T03:55:28.300Z,86.44
2022-08-19T03:56:28.290Z,86.34
2022-08-19T03:57:32.126Z,86.30
2022-08-19T03:58:28.295Z,86.20
2022-08-19T03:59:28.271Z,86.60
2022-08-19T04:00:28.279Z,86.40
2022-08-19T04:01:30.398Z,86.20
2022-08-19T04:02:29.239Z,86.44
2022-08-19T04:03:28.266Z,86.50
2022-08-19T04:04:29.295Z,86.44
2022-08-19T04:05:28.226Z,86.20
2022-08-19T04:06:28.213Z,86.90
2022-08-19T04:07:28.206Z,85.70
2022-08-19T04:08:28.197Z,86.20
2022-08-19T04:09:28.215Z,86.20
2022-08-19T04:10:28.187Z,86.60
2022-08-19T04:11:43.434Z,85.70
2022-08-19T04:12:29.185Z,86.40
2022-08-19T04:13:28.165Z,86.90
2022-08-19T04:14:28.169Z,86.80
2022-08-19T04:15:28.146Z,86.24
2022-08-19T04:16:35.073Z,86.60
2022-08-19T04:17:28.161Z,86.20
2022-08-19T04:18:28.134Z,86.30
2022-08-19T04:19:28.115Z,86.74
2022-08-19T04:20:28.114Z,86.34
2022-08-19T04:21:28.108Z,86.65
2022-08-19T04:22:28.101Z,86.40
2022-08-19T04:23:28.111Z,86.24
2022-08-19T04:24:28.079Z,86.30
2022-08-19T04:25:28.092Z,86.80
2022-08-19T04:26:28.070Z,86.65
2022-08-19T04:27:28.060Z,86.54
2022-08-19T04:28:28.067Z,86.94
2022-08-19T04:29:28.078Z,86.85
2022-08-19T04:30:28.059Z,86.85
2022-08-19T04:31:28.032Z,86.94
2022-08-19T04:32:28.034Z,86.94
2022-08-19T04:33:28.533Z,86.44
2022-08-19T04:34:28.009Z,86.34
2022-08-19T04:35:28.000Z,86.00
2022-08-19T04:36:28.010Z,86.40
2022-08-19T04:37:35.430Z,86.50
2022-08-19T04:38:28.982Z,86.90
2022-08-19T04:39:27.978Z,86.90
2022-08-19T04:40:27.961Z,86.40
2022-08-19T04:41:27.956Z,86.70
2022-08-19T04:42:30.753Z,87.01
2022-08-19T04:43:27.947Z,87.04
2022-08-19T04:44:27.941Z,87.04
2022-08-19T04:45:27.933Z,87.10
2022-08-19T04:46:39.840Z,86.50
2022-08-19T04:47:48.218Z,86.70
2022-08-19T04:48:28.930Z,86.20
2022-08-19T04:49:27.906Z,86.65
2022-08-19T04:50:27.953Z,86.65
2022-08-19T04:51:27.885Z,86.70
2022-08-19T04:52:27.876Z,86.40
2022-08-19T04:53:27.866Z,86.40
2022-08-19T04:54:37.433Z,86.20
2022-08-19T04:55:28.853Z,86.40
2022-08-19T04:56:27.857Z,86.40
2022-08-19T04:57:27.844Z,86.90
2022-08-19T04:58:27.831Z,86.20
2022-08-19T04:59:27.853Z,86.60
2022-08-19T05:00:27.818Z,86.70
2022-08-19T05:01:27.832Z,85.60
2022-08-19T05:02:27.801Z,84.80
2022-08-19T05:03:30.566Z,85.70
2022-08-19T05:04:27.810Z,85.66
2022-08-19T05:05:27.802Z,86.60
2022-08-19T05:06:27.771Z,84.99
2022-08-19T05:07:27.765Z,84.99
2022-08-19T05:08:31.354Z,85.30
2022-08-19T05:09:27.752Z,85.30
2022-08-19T05:10:27.739Z,85.39
2022-08-19T05:11:27.754Z,85.10
2022-08-19T05:12:29.374Z,85.50
2022-08-19T05:13:27.723Z,85.19
2022-08-19T05:14:27.710Z,86.70
2022-08-19T05:15:27.725Z,86.70
2022-08-19T05:16:27.701Z,85.80
2022-08-19T05:17:29.646Z,85.90
2022-08-19T05:18:27.694Z,85.60
2022-08-19T05:19:27.683Z,86.60
2022-08-19T05:20:27.698Z,86.66
2022-08-19T05:21:27.664Z,85.50
2022-08-19T05:22:27.656Z,85.10
2022-08-19T05:23:27.654Z,85.10
2022-08-19T05:24:27.639Z,85.80
2022-08-19T05:25:27.648Z,86.40
2022-08-19T05:26:27.619Z,86.60
2022-08-19T05:27:27.638Z,86.30
2022-08-19T05:28:27.614Z,86.70
2022-08-19T05:29:27.594Z,85.60
2022-08-19T05:30:42.377Z,85.50
2022-08-19T05:31:28.609Z,85.30
2022-08-19T05:32:27.576Z,85.60
2022-08-19T05:33:27.567Z,84.95
2022-08-19T05:34:27.553Z,85.30
2022-08-19T05:35:27.567Z,84.75
2022-08-19T05:36:27.550Z,85.16
2022-08-19T05:37:27.534Z,84.59
2022-08-19T05:38:27.526Z,84.49
2022-08-19T05:39:27.525Z,83.55
2022-08-19T05:40:27.528Z,84.05
2022-08-19T05:41:27.528Z,83.45
2022-08-19T05:42:27.552Z,83.55
2022-08-19T05:43:27.496Z,83.35
2022-08-19T05:44:27.482Z,83.15
2022-08-19T05:45:27.470Z,82.75
2022-08-19T05:46:27.965Z,82.24
2022-08-19T05:47:27.499Z,82.60
2022-08-19T05:48:27.449Z,82.24
2022-08-19T05:49:27.448Z,81.74
2022-08-19T05:50:27.438Z,81.50
2022-08-19T05:51:29.258Z,81.84
2022-08-19T05:52:27.423Z,81.14
2022-08-19T05:53:27.439Z,80.54
2022-08-19T05:54:27.407Z,80.60
2022-08-19T05:55:27.435Z,80.40
2022-08-19T05:56:27.403Z,81.20
2022-08-19T05:57:27.387Z,80.90
2022-08-19T05:58:28.234Z,80.76
2022-08-19T05:59:27.373Z,80.46
2022-08-19T06:00:27.385Z,78.96
2022-08-19T06:01:27.416Z,78.55
2022-08-19T06:02:27.468Z,79.25
2022-08-19T06:03:27.348Z,78.96
2022-08-19T06:04:27.356Z,79.25
2022-08-19T06:05:27.334Z,79.05
2022-08-19T06:06:27.359Z,78.52
2022-08-19T06:07:27.415Z,78.02
2022-08-19T06:08:34.277Z,77.61
2022-08-19T06:09:28.297Z,77.75
2022-08-19T06:10:27.361Z,77.41
2022-08-19T06:11:27.278Z,77.11
2022-08-19T06:12:27.268Z,77.31
2022-08-19T06:13:27.286Z,77.72
2022-08-19T06:14:28.038Z,77.41
2022-08-19T06:15:27.246Z,77.11
2022-08-19T06:16:27.243Z,77.61
2022-08-19T06:17:27.234Z,76.17
2022-08-19T06:18:27.255Z,77.01
2022-08-19T06:19:27.218Z,76.81
2022-08-19T06:20:52.593Z,75.87
2022-08-19T06:21:28.228Z,76.01
2022-08-19T06:22:27.194Z,75.87
2022-08-19T06:23:27.203Z,75.31
2022-08-19T06:24:27.178Z,74.97
2022-08-19T06:25:30.419Z,74.17
2022-08-19T06:26:27.162Z,75.17
2022-08-19T06:27:27.159Z,74.03
2022-08-19T06:28:27.153Z,74.23
2022-08-19T06:29:27.149Z,73.73
2022-08-19T06:30:27.165Z,73.63
2022-08-19T06:31:27.128Z,72.83
2022-08-19T06:32:27.116Z,73.13
2022-08-19T06:33:27.111Z,72.93
2022-08-19T06:34:27.105Z,73.30
2022-08-19T06:35:27.100Z,72.73
2022-08-19T06:36:27.142Z,73.80
2022-08-19T06:37:27.092Z,73.10
2022-08-19T06:38:27.096Z,73.30
2022-08-19T06:39:27.071Z,73.50
2022-08-19T06:40:27.084Z,72.09
2022-08-19T06:41:27.071Z,72.53
2022-08-19T06:42:27.061Z,72.60
2022-08-19T06:43:28.120Z,72.89
2022-08-19T06:44:27.038Z,73.43
2022-08-19T06:45:34.749Z,71.89
2022-08-19T06:46:28.049Z,71.23
2022-08-19T06:47:28.845Z,71.63
2022-08-19T06:48:27.012Z,72.00
2022-08-19T06:49:27.003Z,73.10
2022-08-19T06:50:26.987Z,72.53
2022-08-19T06:51:27.052Z,71.59
2022-08-19T06:52:27.002Z,71.19
2022-08-19T06:53:26.987Z,70.83
2022-08-19T06:54:30.939Z,72.03
2022-08-19T06:55:26.953Z,71.59
2022-08-19T06:56:26.951Z,71.89
2022-08-19T06:57:26.978Z,71.73
2022-08-19T06:58:26.956Z,70.83
2022-08-19T06:59:26.942Z,70.62
2022-08-19T07:00:27.091Z,71.12
2022-08-19T07:01:26.920Z,71.83
2022-08-19T07:02:26.919Z,71.73
2022-08-19T07:03:26.931Z,71.43
2022-08-19T07:04:26.905Z,72.13
2022-08-19T07:05:26.891Z,71.50
2022-08-19T07:06:43.559Z,71.59
2022-08-19T07:07:27.869Z,71.80
2022-08-19T07:08:26.925Z,70.79
2022-08-19T07:09:26.874Z,71.30
2022-08-19T07:10:26.860Z,71.00
2022-08-19T07:11:26.848Z,71.39
2022-08-19T07:12:26.842Z,71.03
2022-08-19T07:13:26.826Z,71.03
2022-08-19T07:14:26.816Z,71.73
2022-08-19T07:15:26.834Z,71.80
2022-08-19T07:16:29.359Z,72.63
2022-08-19T07:17:26.794Z,72.00
2022-08-19T07:18:26.797Z,71.63
2022-08-19T07:19:26.793Z,72.13
2022-08-19T07:20:28.579Z,71.19
2022-08-19T07:21:26.787Z,72.23
2022-08-19T07:22:26.758Z,72.23
2022-08-19T07:23:26.821Z,71.53
2022-08-19T07:24:26.741Z,71.53
2022-08-19T07:25:32.083Z,71.73
2022-08-19T07:26:28.272Z,72.09
2022-08-19T07:27:26.720Z,71.50
2022-08-19T07:28:27.810Z,71.89
2022-08-19T07:29:28.548Z,72.39
2022-08-19T07:30:26.695Z,72.60
2022-08-19T07:31:26.692Z,72.00
2022-08-19T07:32:26.709Z,71.19
2022-08-19T07:33:27.958Z,71.59
2022-08-19T07:34:26.671Z,71.50
2022-08-19T07:35:26.670Z,70.89
2022-08-19T07:36:26.652Z,71.19
2022-08-19T07:37:32.014Z,70.69
2022-08-19T07:38:27.660Z,69.99
2022-08-19T07:39:26.636Z,70.66
2022-08-19T07:40:26.620Z,70.50
2022-08-19T07:41:26.614Z,70.76
2022-08-19T07:42:26.606Z,70.79
2022-08-19T07:43:31.379Z,70.29
2022-08-19T07:44:26.598Z,70.86
2022-08-19T07:45:26.590Z,70.86
2022-08-19T07:46:26.575Z,70.96
2022-08-19T07:47:48.354Z,70.66
2022-08-19T07:48:27.591Z,69.43
2022-08-19T07:49:26.553Z,70.43
2022-08-19T07:50:26.558Z,69.62
2022-08-19T07:51:36.169Z,68.93
2022-08-19T07:52:27.535Z,68.69
2022-08-19T07:53:26.558Z,68.73
2022-08-19T07:54:26.513Z,68.73
2022-08-19T07:55:42.025Z,69.73
2022-08-19T07:56:27.512Z,69.32
2022-08-19T07:57:26.496Z,69.82
2022-08-19T07:58:26.517Z,69.62
2022-08-19T07:59:26.481Z,68.73
2022-08-19T08:00:26.539Z,70.03
2022-08-19T08:01:26.514Z,69.86
2022-08-19T08:02:26.458Z,70.73
2022-08-19T08:03:26.461Z,69.43
2022-08-19T08:04:26.469Z,69.76
2022-08-19T08:05:26.450Z,69.26
2022-08-19T08:06:26.433Z,69.76
2022-08-19T08:07:31.559Z,70.46
2022-08-19T08:08:27.641Z,69.16
2022-08-19T08:09:26.413Z,69.76
2022-08-19T08:10:26.497Z,69.96
2022-08-19T08:11:26.399Z,70.16
2022-08-19T08:12:35.126Z,69.66
2022-08-19T08:13:27.407Z,68.66
2022-08-19T08:14:29.519Z,69.36
2022-08-19T08:15:27.424Z,69.96
2022-08-19T08:16:26.357Z,69.36
2022-08-19T08:17:30.999Z,68.76
2022-08-19T08:18:27.627Z,68.32
2022-08-19T08:19:26.341Z,68.43
2022-08-19T08:20:26.350Z,67.93
2022-08-19T08:21:26.330Z,68.36
2022-08-19T08:22:26.316Z,68.43
2022-08-19T08:23:26.752Z,69.12
2022-08-19T08:24:28.483Z,70.03
2022-08-19T08:25:26.298Z,68.62
2022-08-19T08:26:26.289Z,67.82
2022-08-19T08:27:26.473Z,68.62
2022-08-19T08:28:26.310Z,67.82
2022-08-19T08:29:26.276Z,68.43
2022-08-19T08:30:26.256Z,68.73
2022-08-19T08:31:26.269Z,67.52
2022-08-19T08:32:26.265Z,68.59
2022-08-19T08:33:33.926Z,68.49
2022-08-19T08:34:27.240Z,68.29
2022-08-19T08:35:26.231Z,66.56
2022-08-19T08:36:26.220Z,67.09
2022-08-19T08:37:26.210Z,67.59
2022-08-19T08:38:26.215Z,67.79
2022-08-19T08:39:26.190Z,67.40
2022-08-19T08:40:26.246Z,67.89
2022-08-19T08:41:26.187Z,67.16
2022-08-19T08:42:26.179Z,66.46
2022-08-19T08:43:26.193Z,66.46
2022-08-19T08:44:26.168Z,67.43
2022-08-19T08:45:26.158Z,67.43
2022-08-19T08:46:30.581Z,66.93
2022-08-19T08:47:26.138Z,65.26
2022-08-19T08:48:26.124Z,65.06
2022-08-19T08:49:26.145Z,66.36
2022-08-19T08:50:26.339Z,65.36
2022-08-19T08:51:26.127Z,65.79
2022-08-19T08:52:26.098Z,65.06
2022-08-19T08:53:31.097Z,66.99
2022-08-19T08:54:27.106Z,65.79
2022-08-19T08:55:26.096Z,65.46
2022-08-19T08:56:26.106Z,65.79
2022-08-19T08:57:26.092Z,65.06
2022-08-19T08:58:26.058Z,65.46
2022-08-19T08:59:26.058Z,65.66
2022-08-19T09:00:26.034Z,64.93
2022-08-19T09:01:30.270Z,65.43
2022-08-19T09:02:26.043Z,64.70
2022-08-19T09:03:26.014Z,65.30
2022-08-19T09:04:26.012Z,64.50
2022-08-19T09:05:26.333Z,64.90
2022-08-19T09:06:26.112Z,64.90
2022-08-19T09:07:34.538Z,65.30
2022-08-19T09:08:26.984Z,64.63
2022-08-19T09:09:25.978Z,65.43
2022-08-19T09:10:26.156Z,65.30
2022-08-19T09:11:42.880Z,67.30
2022-08-19T09:12:27.183Z,65.40
2022-08-19T09:13:25.960Z,65.26
2022-08-19T09:14:49.423Z,64.87
2022-08-19T09:15:33.570Z,64.34
2022-08-19T09:16:28.006Z,64.74
2022-08-19T09:17:25.948Z,63.51
2022-08-19T09:18:25.903Z,62.71
2022-08-19T09:19:25.917Z,62.71
2022-08-19T09:20:26.216Z,62.51
2022-08-19T09:21:30.428Z,62.81
2022-08-19T09:22:27.358Z,62.55
2022-08-19T09:23:27.056Z,62.65
2022-08-19T09:24:25.890Z,62.13
2022-08-19T09:25:29.737Z,61.27
2022-08-19T09:26:25.849Z,62.56
2022-08-19T09:27:41.756Z,60.14
2022-08-19T09:28:27.227Z,59.75
2022-08-19T09:29:25.834Z,59.15
2022-08-19T09:30:25.837Z,58.26
2022-08-19T09:31:25.859Z,59.55
2022-08-19T09:32:26.641Z,60.05
2022-08-19T09:33:25.801Z,60.17
2022-08-19T09:34:25.793Z,60.55
2022-08-19T09:35:25.790Z,60.64
2022-08-19T09:36:34.475Z,59.92
2022-08-19T09:37:26.789Z,58.13
2022-08-19T09:38:25.762Z,57.24
2022-08-19T09:39:25.759Z,59.12
2022-08-19T09:40:26.808Z,58.73
2022-08-19T09:41:25.784Z,58.45
2022-08-19T09:42:30.422Z,59.22
2022-08-19T09:43:33.269Z,59.99
2022-08-19T09:44:26.713Z,58.57
2022-08-19T09:45:25.730Z,57.28
2022-08-19T09:46:25.704Z,56.06
2022-08-19T09:47:25.718Z,56.23
2022-08-19T09:48:25.716Z,56.80
2022-08-19T09:49:25.692Z,55.51
2022-08-19T09:50:25.710Z,56.28
2022-08-19T09:51:25.724Z,55.46
2022-08-19T09:52:25.670Z,54.64
2022-08-19T09:53:26.657Z,55.16
2022-08-19T09:54:25.664Z,54.62
2022-08-19T09:55:32.044Z,55.61
2022-08-19T09:56:26.654Z,56.40
2022-08-19T09:57:25.634Z,56.51
2022-08-19T09:58:26.732Z,55.49
2022-08-19T09:59:25.644Z,54.85
2022-08-19T10:00:25.630Z,55.04
2022-08-19T10:01:25.761Z,54.05
2022-08-19T10:02:25.603Z,54.97
2022-08-19T10:03:30.011Z,55.49
2022-08-19T10:04:25.588Z,56.02
2022-08-19T10:05:26.865Z,56.81
2022-08-19T10:06:45.798Z,56.06
2022-08-19T10:07:28.959Z,57.23
2022-08-19T10:08:26.725Z,55.71
2022-08-19T10:09:33.952Z,54.52
2022-08-19T10:10:26.528Z,53.78
2022-08-19T10:11:28.063Z,54.07
2022-08-19T10:12:26.518Z,52.69
2022-08-19T10:13:25.532Z,53.78
2022-08-19T10:14:25.509Z,52.78
2022-08-19T10:15:28.792Z,53.78
2022-08-19T10:16:25.980Z,52.59
2022-08-19T10:17:27.388Z,53.38
2022-08-19T10:18:25.478Z,53.01
2022-08-19T10:19:26.398Z,53.80
2022-08-19T10:20:25.471Z,53.60
2022-08-19T10:21:25.594Z,53.41
2022-08-19T10:22:26.213Z,52.39
2022-08-19T10:23:25.467Z,52.59
2022-08-19T10:24:25.439Z,51.70
2022-08-19T10:25:25.441Z,52.49
2022-08-19T10:26:26.630Z,50.88
2022-08-19T10:27:26.340Z,50.85
2022-08-19T10:28:25.405Z,51.15
2022-08-19T10:29:32.115Z,48.75
2022-08-19T10:30:26.393Z,48.65
2022-08-19T10:31:58.773Z,50.81
2022-08-19T10:32:34.058Z,50.38
2022-08-19T10:33:38.814Z,48.28
2022-08-19T10:34:28.389Z,47.57
2022-08-19T10:35:25.357Z,48.44
2022-08-19T10:36:25.362Z,47.97
2022-08-19T10:37:31.368Z,47.89
2022-08-19T10:38:32.985Z,48.21
2022-08-19T10:39:26.327Z,48.41
2022-08-19T10:40:25.434Z,48.31
2022-08-19T10:41:25.370Z,48.93
2022-08-19T10:42:25.306Z,50.36
2022-08-19T10:43:25.322Z,50.16
2022-08-19T10:44:25.293Z,50.78
2022-08-19T10:45:26.311Z,50.88
2022-08-19T10:46:25.281Z,51.77
2022-08-19T10:47:26.092Z,52.17
2022-08-19T10:48:26.282Z,51.03
2022-08-19T10:49:25.264Z,51.79
2022-08-19T10:50:28.654Z,51.82
2022-08-19T10:51:25.258Z,51.84
2022-08-19T10:52:32.284Z,52.73
2022-08-19T10:53:26.244Z,53.33
2022-08-19T10:54:31.204Z,53.83
2022-08-19T10:55:26.317Z,52.71
2022-08-19T10:56:25.211Z,53.80
2022-08-19T10:57:27.937Z,52.39
2022-08-19T10:58:26.199Z,51.57
2022-08-19T10:59:26.799Z,51.45
2022-08-19T11:00:25.184Z,51.03
2022-08-19T11:01:25.220Z,49.82
2022-08-19T11:02:25.175Z,48.31
2022-08-19T11:03:25.179Z,48.71
2022-08-19T11:04:28.862Z,48.61
2022-08-19T11:05:25.160Z,48.90
2022-08-19T11:06:25.147Z,49.27
2022-08-19T11:07:25.160Z,48.36
2022-08-19T11:08:25.172Z,47.94
2022-08-19T11:09:33.142Z,47.10
2022-08-19T11:10:26.107Z,46.63
2022-08-19T11:11:25.150Z,47.15
2022-08-19T11:12:25.107Z,46.78
2022-08-19T11:13:25.081Z,47.07
2022-08-19T11:14:25.098Z,48.24
2022-08-19T11:15:25.112Z,46.75
2022-08-19T11:16:25.066Z,48.36
2022-08-19T11:17:25.054Z,47.05
2022-08-19T11:18:25.053Z,47.74
2022-08-19T11:19:25.044Z,47.81
2022-08-19T11:20:25.038Z,48.26
2022-08-19T11:21:25.122Z,48.68
2022-08-19T11:22:28.816Z,48.58
2022-08-19T11:23:26.024Z,48.68
2022-08-19T11:24:25.009Z,48.36
2022-08-19T11:25:25.003Z,48.24
2022-08-19T11:26:24.991Z,48.11
2022-08-19T11:27:25.022Z,47.89
2022-08-19T11:28:24.974Z,48.49
2022-08-19T11:29:24.974Z,47.69
2022-08-19T11:30:24.958Z,46.63
2022-08-19T11:31:24.987Z,46.16
2022-08-19T11:32:24.978Z,48.06
2022-08-19T11:33:24.961Z,47.47
2022-08-19T11:34:24.933Z,47.05
2022-08-19T11:35:24.918Z,46.48
2022-08-19T11:36:24.915Z,47.37
2022-08-19T11:37:24.911Z,47.47
2022-08-19T11:38:24.936Z,47.07
2022-08-19T11:39:24.896Z,47.34
2022-08-19T11:40:24.885Z,48.11
2022-08-19T11:41:24.887Z,48.28
2022-08-19T11:42:24.871Z,47.28
2022-08-19T11:43:24.873Z,46.96
2022-08-19T11:44:24.893Z,46.86
2022-08-19T11:45:24.869Z,46.15
2022-08-19T11:46:24.856Z,44.67
2022-08-19T11:47:24.847Z,44.59
2022-08-19T11:48:24.835Z,42.91
2022-08-19T11:49:24.842Z,44.00
2022-08-19T11:50:24.843Z,42.82
2022-08-19T11:51:24.820Z,43.23
2022-08-19T11:52:24.806Z,44.34
2022-08-19T11:53:24.799Z,46.09
2022-08-19T11:54:24.812Z,46.73
2022-08-19T11:55:24.820Z,47.34
2022-08-19T11:56:24.780Z,48.03
2022-08-19T11:57:24.771Z,47.94
2022-08-19T11:58:24.773Z,46.55
2022-08-19T11:59:24.752Z,47.03
2022-08-19T12:00:24.767Z,48.09
2022-08-19T12:01:24.743Z,47.20
2022-08-19T12:02:24.727Z,47.00
2022-08-19T12:03:24.737Z,48.16
2022-08-19T12:04:24.778Z,46.66
2022-08-19T12:05:24.713Z,45.42
2022-08-19T12:06:24.704Z,45.92
2022-08-19T12:07:24.711Z,45.10
2022-08-19T12:08:24.715Z,44.12
2022-08-19T12:09:24.678Z,45.03
2022-08-19T12:10:26.388Z,44.75
2022-08-19T12:11:24.684Z,45.05
2022-08-19T12:12:24.662Z,44.75
2022-08-19T12:13:24.684Z,45.17
2022-08-19T12:14:24.732Z,44.18
2022-08-19T12:15:24.637Z,44.56
2022-08-19T12:16:24.651Z,44.38
2022-08-19T12:17:24.631Z,45.45
2022-08-19T12:18:24.728Z,44.14
2022-08-19T12:19:24.609Z,45.23
2022-08-19T12:20:24.684Z,44.89
2022-08-19T12:21:24.617Z,44.20
2022-08-19T12:22:24.594Z,43.98
2022-08-19T12:23:24.564Z,44.00
2022-08-19T12:24:24.569Z,46.19
2022-08-19T12:25:24.588Z,45.01
2022-08-19T12:26:24.560Z,44.75
2022-08-19T12:27:40.126Z,46.18
2022-08-19T12:28:25.546Z,47.17
2022-08-19T12:29:24.540Z,47.29
2022-08-19T12:30:24.567Z,47.00
2022-08-19T12:31:24.532Z,47.89
2022-08-19T12:32:24.527Z,47.07
2022-08-19T12:33:24.541Z,47.47
2022-08-19T12:34:24.505Z,46.55
2022-08-19T12:35:24.507Z,47.34
2022-08-19T12:36:24.551Z,45.37
2022-08-19T12:37:24.496Z,46.66
2022-08-19T12:38:24.479Z,45.15
2022-08-19T12:39:24.554Z,46.23
2022-08-19T12:40:26.462Z,46.44
2022-08-19T12:41:24.487Z,45.57
2022-08-19T12:42:24.482Z,44.56
2022-08-19T12:43:24.455Z,45.37
2022-08-19T12:44:29.573Z,46.53
2022-08-19T12:45:25.436Z,45.23
2022-08-19T12:46:26.200Z,44.65
2022-08-19T12:47:24.414Z,45.13
2022-08-19T12:48:33.641Z,44.04
2022-08-19T12:49:53.286Z,44.32
2022-08-19T12:50:25.441Z,44.00
2022-08-19T12:51:24.409Z,44.98
2022-08-19T12:52:24.417Z,44.10